sensor_id;sensor_type;location;lat;lon;timestamp;P1;durP1;ratioP1;P2;durP2;ratioP2
6467;SDS011;3267;48.794;9.928;2022-12-07T05:01:44;7.37;;;6.03;;
6467;SDS011;3267;48.794;9.928;2022-12-07T05:04:12;7.87;;;5.27;;
6467;SDS011;3267;48.794;9.928;2022-12-07T05:06:39;6.73;;;5.40;;
6467;SDS011;3267;48.794;9.928;2022-12-07T05:09:05;8.47;;;5.97;;
6467;SDS011;3267;48.794;9.928;2022-12-07T05:11:31;6.83;;;5.40;;
6467;SDS011;3267;48.794;9.928;2022-12-07T05:14:05;5.50;;;5.00;;
6467;SDS011;3267;48.794;9.928;2022-12-07T05:16:31;5.90;;;5.33;;
6467;SDS011;3267;48.794;9.928;2022-12-07T05:18:58;5.93;;;4.67;;
6467;SDS011;3267;48.794;9.928;2022-12-07T05:21:24;4.73;;;4.33;;
6467;SDS011;3267;48.794;9.928;2022-12-07T05:23:50;5.00;;;4.33;;
6467;SDS011;3267;48.794;9.928;2022-12-07T05:26:16;6.67;;;5.20;;
6467;SDS011;3267;48.794;9.928;2022-12-07T05:28:43;4.90;;;4.17;;
6467;SDS011;3267;48.794;9.928;2022-12-07T05:31:09;5.00;;;4.50;;
6467;SDS011;3267;48.794;9.928;2022-12-07T05:33:35;4.93;;;4.40;;
6467;SDS011;3267;48.794;9.928;2022-12-07T05:36:02;4.30;;;3.90;;
6467;SDS011;3267;48.794;9.928;2022-12-07T05:38:33;4.03;;;3.20;;
6467;SDS011;3267;48.794;9.928;2022-12-07T05:41:00;2.90;;;2.60;;
6467;SDS011;3267;48.794;9.928;2022-12-07T05:43:27;6.90;;;3.57;;
6467;SDS011;3267;48.794;9.928;2022-12-07T05:45:54;4.57;;;3.90;;
6467;SDS011;3267;48.794;9.928;2022-12-07T05:48:20;4.60;;;3.77;;
6467;SDS011;3267;48.794;9.928;2022-12-07T05:50:49;5.10;;;3.97;;
6467;SDS011;3267;48.794;9.928;2022-12-07T05:53:16;4.30;;;3.90;;
6467;SDS011;3267;48.794;9.928;2022-12-07T05:55:42;3.50;;;3.20;;
6467;SDS011;3267;48.794;9.928;2022-12-07T05:58:08;4.03;;;3.63;;
6467;SDS011;3267;48.794;9.928;2022-12-07T06:00:54;5.67;;;3.30;;
6467;SDS011;3267;48.794;9.928;2022-12-07T06:03:20;4.37;;;3.10;;
6467;SDS011;3267;48.794;9.928;2022-12-07T06:05:47;5.13;;;3.90;;
6467;SDS011;3267;48.794;9.928;2022-12-07T06:08:13;5.00;;;4.27;;
6467;SDS011;3267;48.794;9.928;2022-12-07T06:10:43;3.83;;;2.97;;
6467;SDS011;3267;48.794;9.928;2022-12-07T06:13:09;4.53;;;4.13;;
6467;SDS011;3267;48.794;9.928;2022-12-07T06:15:36;4.80;;;4.10;;
6467;SDS011;3267;48.794;9.928;2022-12-07T06:18:02;5.80;;;4.83;;
6467;SDS011;3267;48.794;9.928;2022-12-07T06:20:28;8.63;;;4.63;;
6467;SDS011;3267;48.794;9.928;2022-12-07T06:22:54;6.77;;;5.53;;
6467;SDS011;3267;48.794;9.928;2022-12-07T06:25:20;8.00;;;6.10;;
6467;SDS011;3267;48.794;9.928;2022-12-07T06:27:47;18.00;;;6.50;;
6467;SDS011;3267;48.794;9.928;2022-12-07T06:30:13;7.93;;;6.17;;
6467;SDS011;3267;48.794;9.928;2022-12-07T06:32:39;7.90;;;6.30;;
6467;SDS011;3267;48.794;9.928;2022-12-07T06:35:05;8.50;;;6.93;;
6467;SDS011;3267;48.794;9.928;2022-12-07T06:37:31;12.03;;;7.13;;
6467;SDS011;3267;48.794;9.928;2022-12-07T06:39:58;8.53;;;6.93;;
6467;SDS011;3267;48.794;9.928;2022-12-07T06:42:24;9.10;;;7.03;;
6467;SDS011;3267;48.794;9.928;2022-12-07T06:44:50;13.03;;;7.43;;
6467;SDS011;3267;48.794;9.928;2022-12-07T06:47:16;8.83;;;6.47;;
6467;SDS011;3267;48.794;9.928;2022-12-07T06:49:42;8.93;;;6.37;;
6467;SDS011;3267;48.794;9.928;2022-12-07T06:52:08;9.33;;;6.83;;
6467;SDS011;3267;48.794;9.928;2022-12-07T06:54:35;9.07;;;6.73;;
6467;SDS011;3267;48.794;9.928;2022-12-07T06:57:01;8.27;;;6.67;;
6467;SDS011;3267;48.794;9.928;2022-12-07T06:59:27;9.27;;;6.57;;
6467;SDS011;3267;48.794;9.928;2022-12-07T07:01:53;2.10;;;1.90;;
6467;SDS011;3267;48.794;9.928;2022-12-07T07:04:20;9.37;;;6.80;;
6467;SDS011;3267;48.794;9.928;2022-12-07T07:06:46;6.80;;;5.53;;
6467;SDS011;3267;48.794;9.928;2022-12-07T07:09:12;9.00;;;7.20;;
6467;SDS011;3267;48.794;9.928;2022-12-07T07:11:39;8.77;;;6.73;;
6467;SDS011;3267;48.794;9.928;2022-12-07T07:14:05;10.23;;;7.67;;
6467;SDS011;3267;48.794;9.928;2022-12-07T07:16:31;7.57;;;6.60;;
6467;SDS011;3267;48.794;9.928;2022-12-07T07:18:57;10.93;;;7.03;;
6467;SDS011;3267;48.794;9.928;2022-12-07T07:21:23;9.87;;;6.70;;
6467;SDS011;3267;48.794;9.928;2022-12-07T07:23:50;16.27;;;11.63;;
6467;SDS011;3267;48.794;9.928;2022-12-07T07:26:17;9.73;;;8.23;;
6467;SDS011;3267;48.794;9.928;2022-12-07T07:28:43;8.97;;;6.67;;
6467;SDS011;3267;48.794;9.928;2022-12-07T07:31:09;7.17;;;5.90;;
6467;SDS011;3267;48.794;9.928;2022-12-07T07:33:35;8.67;;;6.90;;
6467;SDS011;3267;48.794;9.928;2022-12-07T07:36:02;9.60;;;6.20;;
6467;SDS011;3267;48.794;9.928;2022-12-07T07:38:28;7.50;;;5.63;;
6467;SDS011;3267;48.794;9.928;2022-12-07T07:40:54;13.70;;;6.30;;
6467;SDS011;3267;48.794;9.928;2022-12-07T07:43:20;9.50;;;6.37;;
6467;SDS011;3267;48.794;9.928;2022-12-07T07:45:46;8.07;;;6.73;;
6467;SDS011;3267;48.794;9.928;2022-12-07T07:48:13;8.23;;;6.33;;
6467;SDS011;3267;48.794;9.928;2022-12-07T07:50:39;6.87;;;6.17;;
6467;SDS011;3267;48.794;9.928;2022-12-07T07:53:05;11.23;;;8.57;;
6467;SDS011;3267;48.794;9.928;2022-12-07T07:55:31;11.07;;;7.03;;
6467;SDS011;3267;48.794;9.928;2022-12-07T07:57:58;8.97;;;6.77;;
6467;SDS011;3267;48.794;9.928;2022-12-07T08:00:24;4.90;;;4.37;;
6467;SDS011;3267;48.794;9.928;2022-12-07T08:02:50;5.37;;;4.40;;
6467;SDS011;3267;48.794;9.928;2022-12-07T08:05:17;4.50;;;3.97;;
6467;SDS011;3267;48.794;9.928;2022-12-07T08:07:44;5.23;;;3.93;;
6467;SDS011;3267;48.794;9.928;2022-12-07T08:10:11;7.40;;;4.63;;
6467;SDS011;3267;48.794;9.928;2022-12-07T08:12:38;4.70;;;4.00;;
6467;SDS011;3267;48.794;9.928;2022-12-07T08:15:26;6.53;;;4.20;;
6467;SDS011;3267;48.794;9.928;2022-12-07T08:17:52;4.43;;;3.53;;
6467;SDS011;3267;48.794;9.928;2022-12-07T08:20:19;3.43;;;2.80;;
6467;SDS011;3267;48.794;9.928;2022-12-07T08:22:45;4.27;;;3.50;;
6467;SDS011;3267;48.794;9.928;2022-12-07T08:25:11;3.37;;;3.07;;
6467;SDS011;3267;48.794;9.928;2022-12-07T08:27:38;4.93;;;3.80;;
6467;SDS011;3267;48.794;9.928;2022-12-07T08:30:04;1.07;;;1.07;;
6467;SDS011;3267;48.794;9.928;2022-12-07T08:32:31;3.83;;;3.40;;
6467;SDS011;3267;48.794;9.928;2022-12-07T08:34:57;3.43;;;2.90;;
6467;SDS011;3267;48.794;9.928;2022-12-07T08:37:23;4.17;;;3.33;;
6467;SDS011;3267;48.794;9.928;2022-12-07T08:39:49;3.57;;;3.27;;
6467;SDS011;3267;48.794;9.928;2022-12-07T08:42:15;2.60;;;2.40;;
6467;SDS011;3267;48.794;9.928;2022-12-07T08:44:42;3.60;;;3.30;;
6467;SDS011;3267;48.794;9.928;2022-12-07T08:47:08;2.97;;;2.67;;
6467;SDS011;3267;48.794;9.928;2022-12-07T08:49:41;2.43;;;2.23;;
6467;SDS011;3267;48.794;9.928;2022-12-07T08:52:10;3.67;;;2.90;;
6467;SDS011;3267;48.794;9.928;2022-12-07T08:54:37;4.37;;;3.60;;
6467;SDS011;3267;48.794;9.928;2022-12-07T08:57:05;1.73;;;1.60;;
6467;SDS011;3267;48.794;9.928;2022-12-07T08:59:35;3.47;;;3.17;;
6467;SDS011;3267;48.794;9.928;2022-12-07T09:02:04;7.27;;;3.77;;
6467;SDS011;3267;48.794;9.928;2022-12-07T09:04:30;3.07;;;2.70;;
6467;SDS011;3267;48.794;9.928;2022-12-07T09:06:57;4.00;;;3.50;;
6467;SDS011;3267;48.794;9.928;2022-12-07T09:09:23;3.40;;;3.10;;
6467;SDS011;3267;48.794;9.928;2022-12-07T09:11:49;4.43;;;4.03;;
6467;SDS011;3267;48.794;9.928;2022-12-07T09:14:15;3.40;;;3.10;;
6467;SDS011;3267;48.794;9.928;2022-12-07T09:16:42;5.60;;;2.93;;
6467;SDS011;3267;48.794;9.928;2022-12-07T09:19:08;3.50;;;3.20;;
6467;SDS011;3267;48.794;9.928;2022-12-07T09:21:34;3.20;;;2.80;;
6467;SDS011;3267;48.794;9.928;2022-12-07T09:24:01;3.83;;;3.43;;
6467;SDS011;3267;48.794;9.928;2022-12-07T09:26:27;3.33;;;3.03;;
6467;SDS011;3267;48.794;9.928;2022-12-07T09:28:53;5.60;;;3.47;;
6467;SDS011;3267;48.794;9.928;2022-12-07T09:31:19;4.57;;;3.80;;
6467;SDS011;3267;48.794;9.928;2022-12-07T09:33:46;4.63;;;3.87;;
6467;SDS011;3267;48.794;9.928;2022-12-07T09:36:12;3.50;;;3.20;;
6467;SDS011;3267;48.794;9.928;2022-12-07T09:38:39;4.37;;;3.30;;
6467;SDS011;3267;48.794;9.928;2022-12-07T09:41:06;4.53;;;3.70;;
6467;SDS011;3267;48.794;9.928;2022-12-07T09:43:33;4.73;;;3.60;;
6467;SDS011;3267;48.794;9.928;2022-12-07T09:46:00;5.13;;;3.70;;
6467;SDS011;3267;48.794;9.928;2022-12-07T09:48:31;4.47;;;3.80;;
6467;SDS011;3267;48.794;9.928;2022-12-07T09:51:02;2.80;;;2.20;;
6467;SDS011;3267;48.794;9.928;2022-12-07T09:53:30;4.47;;;3.67;;
6467;SDS011;3267;48.794;9.928;2022-12-07T09:55:56;5.23;;;3.33;;
6467;SDS011;3267;48.794;9.928;2022-12-07T09:58:23;4.00;;;3.53;;
6467;SDS011;3267;48.794;9.928;2022-12-07T10:00:58;4.33;;;3.60;;
6467;SDS011;3267;48.794;9.928;2022-12-07T10:03:37;5.90;;;3.70;;
6467;SDS011;3267;48.794;9.928;2022-12-07T10:06:04;3.97;;;3.33;;
6467;SDS011;3267;48.794;9.928;2022-12-07T10:08:31;4.50;;;4.00;;
6467;SDS011;3267;48.794;9.928;2022-12-07T10:10:58;2.80;;;2.60;;
6467;SDS011;3267;48.794;9.928;2022-12-07T10:13:35;5.83;;;3.63;;
6467;SDS011;3267;48.794;9.928;2022-12-07T10:16:02;5.43;;;4.17;;
6467;SDS011;3267;48.794;9.928;2022-12-07T10:23:33;4.43;;;3.30;;
6467;SDS011;3267;48.794;9.928;2022-12-07T10:26:15;4.53;;;3.80;;
6467;SDS011;3267;48.794;9.928;2022-12-07T10:28:47;3.97;;;3.10;;
6467;SDS011;3267;48.794;9.928;2022-12-07T10:31:18;4.63;;;3.60;;
6467;SDS011;3267;48.794;9.928;2022-12-07T10:36:17;7.10;;;4.47;;
6467;SDS011;3267;48.794;9.928;2022-12-07T10:38:53;7.47;;;5.30;;
6467;SDS011;3267;48.794;9.928;2022-12-07T10:41:29;6.73;;;3.53;;
6467;SDS011;3267;48.794;9.928;2022-12-07T10:43:56;3.77;;;3.47;;
6467;SDS011;3267;48.794;9.928;2022-12-07T10:56:50;3.43;;;3.07;;
6467;SDS011;3267;48.794;9.928;2022-12-07T11:07:14;7.73;;;3.63;;
6467;SDS011;3267;48.794;9.928;2022-12-07T11:15:21;6.77;;;3.40;;
6467;SDS011;3267;48.794;9.928;2022-12-07T11:18:00;3.50;;;3.20;;
6467;SDS011;3267;48.794;9.928;2022-12-07T11:20:51;9.00;;;3.57;;
6467;SDS011;3267;48.794;9.928;2022-12-07T11:34:48;5.43;;;4.10;;
6467;SDS011;3267;48.794;9.928;2022-12-07T11:37:21;4.80;;;3.57;;
6467;SDS011;3267;48.794;9.928;2022-12-07T11:39:54;3.93;;;3.47;;
6467;SDS011;3267;48.794;9.928;2022-12-07T11:42:26;3.90;;;2.93;;
6467;SDS011;3267;48.794;9.928;2022-12-07T11:47:40;4.27;;;3.80;;
6467;SDS011;3267;48.794;9.928;2022-12-07T11:55:18;4.20;;;3.50;;
6467;SDS011;3267;48.794;9.928;2022-12-07T11:57:46;4.10;;;3.53;;
6467;SDS011;3267;48.794;9.928;2022-12-07T12:00:16;3.60;;;3.30;;
6467;SDS011;3267;48.794;9.928;2022-12-07T12:02:46;6.47;;;3.70;;
6467;SDS011;3267;48.794;9.928;2022-12-07T12:05:22;4.40;;;3.97;;
6467;SDS011;3267;48.794;9.928;2022-12-07T12:07:55;3.40;;;3.10;;
6467;SDS011;3267;48.794;9.928;2022-12-07T12:16:26;4.47;;;3.87;;
6467;SDS011;3267;48.794;9.928;2022-12-07T12:22:03;3.83;;;3.37;;
6467;SDS011;3267;48.794;9.928;2022-12-07T12:24:37;5.37;;;4.23;;
6467;SDS011;3267;48.794;9.928;2022-12-07T12:27:08;5.30;;;3.90;;
6467;SDS011;3267;48.794;9.928;2022-12-07T12:29:42;4.50;;;3.60;;
6467;SDS011;3267;48.794;9.928;2022-12-07T12:32:21;4.63;;;3.93;;
6467;SDS011;3267;48.794;9.928;2022-12-07T12:35:29;4.80;;;3.77;;
6467;SDS011;3267;48.794;9.928;2022-12-07T12:40:55;4.27;;;3.77;;
6467;SDS011;3267;48.794;9.928;2022-12-07T12:51:43;4.27;;;3.53;;
6467;SDS011;3267;48.794;9.928;2022-12-07T12:54:20;4.57;;;3.77;;
6467;SDS011;3267;48.794;9.928;2022-12-07T12:57:05;3.57;;;3.27;;
6467;SDS011;3267;48.794;9.928;2022-12-07T13:02:09;4.50;;;3.80;;
6467;SDS011;3267;48.794;9.928;2022-12-07T13:04:48;6.40;;;4.13;;
6467;SDS011;3267;48.794;9.928;2022-12-07T13:15:40;6.50;;;3.47;;
6467;SDS011;3267;48.794;9.928;2022-12-07T13:18:34;4.57;;;3.50;;
6467;SDS011;3267;48.794;9.928;2022-12-07T13:29:16;4.17;;;3.03;;
6467;SDS011;3267;48.794;9.928;2022-12-07T13:31:55;3.57;;;3.27;;
6467;SDS011;3267;48.794;9.928;2022-12-07T13:36:53;3.40;;;3.10;;
6467;SDS011;3267;48.794;9.928;2022-12-07T13:39:20;3.57;;;2.60;;
6467;SDS011;3267;48.794;9.928;2022-12-07T13:42:31;3.10;;;2.87;;
6467;SDS011;3267;48.794;9.928;2022-12-07T13:44:57;4.10;;;3.27;;
6467;SDS011;3267;48.794;9.928;2022-12-07T13:47:35;4.00;;;3.50;;
6467;SDS011;3267;48.794;9.928;2022-12-07T13:52:57;4.63;;;3.33;;
6467;SDS011;3267;48.794;9.928;2022-12-07T13:55:24;3.30;;;3.00;;
6467;SDS011;3267;48.794;9.928;2022-12-07T13:57:51;8.27;;;3.80;;
6467;SDS011;3267;48.794;9.928;2022-12-07T14:00:19;4.47;;;3.60;;
6467;SDS011;3267;48.794;9.928;2022-12-07T14:03:01;4.53;;;3.40;;
6467;SDS011;3267;48.794;9.928;2022-12-07T14:05:28;7.50;;;3.30;;
6467;SDS011;3267;48.794;9.928;2022-12-07T14:10:31;4.83;;;3.50;;
6467;SDS011;3267;48.794;9.928;2022-12-07T14:12:58;5.63;;;4.40;;
6467;SDS011;3267;48.794;9.928;2022-12-07T14:15:28;6.47;;;3.87;;
6467;SDS011;3267;48.794;9.928;2022-12-07T14:17:59;6.13;;;3.97;;
6467;SDS011;3267;48.794;9.928;2022-12-07T14:20:32;4.97;;;3.73;;
6467;SDS011;3267;48.794;9.928;2022-12-07T14:23:02;8.17;;;4.37;;
6467;SDS011;3267;48.794;9.928;2022-12-07T14:25:50;4.33;;;3.93;;
6467;SDS011;3267;48.794;9.928;2022-12-07T14:28:29;4.50;;;3.73;;
6467;SDS011;3267;48.794;9.928;2022-12-07T14:30:56;4.33;;;3.93;;
6467;SDS011;3267;48.794;9.928;2022-12-07T14:33:23;3.67;;;3.37;;
6467;SDS011;3267;48.794;9.928;2022-12-07T14:35:49;6.27;;;5.60;;
6467;SDS011;3267;48.794;9.928;2022-12-07T14:38:20;8.00;;;4.83;;
6467;SDS011;3267;48.794;9.928;2022-12-07T14:40:47;5.00;;;4.43;;
6467;SDS011;3267;48.794;9.928;2022-12-07T14:43:15;5.13;;;4.63;;
6467;SDS011;3267;48.794;9.928;2022-12-07T14:45:41;5.90;;;4.13;;
6467;SDS011;3267;48.794;9.928;2022-12-07T14:48:09;5.50;;;4.00;;
6467;SDS011;3267;48.794;9.928;2022-12-07T14:50:37;7.93;;;4.27;;
6467;SDS011;3267;48.794;9.928;2022-12-07T14:53:09;4.93;;;4.43;;
6467;SDS011;3267;48.794;9.928;2022-12-07T14:55:41;7.27;;;4.53;;
6467;SDS011;3267;48.794;9.928;2022-12-07T14:58:12;8.47;;;6.13;;
6467;SDS011;3267;48.794;9.928;2022-12-07T15:00:39;6.70;;;4.63;;
6467;SDS011;3267;48.794;9.928;2022-12-07T15:03:06;5.67;;;4.53;;
6467;SDS011;3267;48.794;9.928;2022-12-07T15:05:32;6.60;;;3.60;;
6467;SDS011;3267;48.794;9.928;2022-12-07T15:07:59;4.30;;;3.50;;
6467;SDS011;3267;48.794;9.928;2022-12-07T15:10:27;7.03;;;3.97;;
6467;SDS011;3267;48.794;9.928;2022-12-07T15:12:55;5.07;;;3.40;;
6467;SDS011;3267;48.794;9.928;2022-12-07T15:15:41;6.23;;;3.93;;
6467;SDS011;3267;48.794;9.928;2022-12-07T15:18:08;5.77;;;3.93;;
6467;SDS011;3267;48.794;9.928;2022-12-07T15:20:35;5.80;;;3.67;;
6467;SDS011;3267;48.794;9.928;2022-12-07T15:23:01;6.67;;;3.93;;
6467;SDS011;3267;48.794;9.928;2022-12-07T15:25:27;4.40;;;3.90;;
6467;SDS011;3267;48.794;9.928;2022-12-07T15:27:56;4.50;;;4.10;;
6467;SDS011;3267;48.794;9.928;2022-12-07T15:30:23;4.90;;;4.10;;
6467;SDS011;3267;48.794;9.928;2022-12-07T15:32:49;4.67;;;4.03;;
6467;SDS011;3267;48.794;9.928;2022-12-07T15:35:16;4.73;;;4.30;;
6467;SDS011;3267;48.794;9.928;2022-12-07T15:37:42;4.90;;;3.73;;
6467;SDS011;3267;48.794;9.928;2022-12-07T15:40:08;6.17;;;4.30;;
6467;SDS011;3267;48.794;9.928;2022-12-07T15:42:35;11.63;;;4.27;;
6467;SDS011;3267;48.794;9.928;2022-12-07T15:45:02;6.33;;;4.40;;
6467;SDS011;3267;48.794;9.928;2022-12-07T15:47:29;11.63;;;5.10;;
6467;SDS011;3267;48.794;9.928;2022-12-07T15:50:03;5.33;;;4.63;;
6467;SDS011;3267;48.794;9.928;2022-12-07T15:52:30;5.60;;;4.67;;
6467;SDS011;3267;48.794;9.928;2022-12-07T15:54:56;5.40;;;4.90;;
6467;SDS011;3267;48.794;9.928;2022-12-07T15:57:22;5.80;;;4.07;;
6467;SDS011;3267;48.794;9.928;2022-12-07T15:59:48;5.23;;;4.27;;
6467;SDS011;3267;48.794;9.928;2022-12-07T16:02:15;5.37;;;4.33;;
6467;SDS011;3267;48.794;9.928;2022-12-07T16:04:43;5.77;;;4.80;;
6467;SDS011;3267;48.794;9.928;2022-12-07T16:07:10;4.50;;;4.10;;
6467;SDS011;3267;48.794;9.928;2022-12-07T16:09:37;4.70;;;3.73;;
6467;SDS011;3267;48.794;9.928;2022-12-07T16:12:03;4.67;;;4.23;;
6467;SDS011;3267;48.794;9.928;2022-12-07T16:14:30;9.93;;;7.70;;
6467;SDS011;3267;48.794;9.928;2022-12-07T16:16:58;12.40;;;6.97;;
6467;SDS011;3267;48.794;9.928;2022-12-07T16:19:25;6.50;;;5.90;;
6467;SDS011;3267;48.794;9.928;2022-12-07T16:21:51;6.37;;;5.77;;
6467;SDS011;3267;48.794;9.928;2022-12-07T16:24:17;7.50;;;6.10;;
6467;SDS011;3267;48.794;9.928;2022-12-07T16:26:44;7.90;;;6.13;;
6467;SDS011;3267;48.794;9.928;2022-12-07T16:29:11;13.80;;;8.43;;
6467;SDS011;3267;48.794;9.928;2022-12-07T16:31:37;6.13;;;4.83;;
6467;SDS011;3267;48.794;9.928;2022-12-07T16:34:04;8.47;;;5.50;;
6467;SDS011;3267;48.794;9.928;2022-12-07T16:36:30;7.30;;;6.00;;
6467;SDS011;3267;48.794;9.928;2022-12-07T16:38:57;7.50;;;5.80;;
6467;SDS011;3267;48.794;9.928;2022-12-07T16:41:24;8.43;;;5.73;;
6467;SDS011;3267;48.794;9.928;2022-12-07T16:43:50;9.20;;;6.00;;
6467;SDS011;3267;48.794;9.928;2022-12-07T16:46:17;8.07;;;6.87;;
6467;SDS011;3267;48.794;9.928;2022-12-07T16:48:43;5.57;;;4.90;;
6467;SDS011;3267;48.794;9.928;2022-12-07T16:51:10;6.43;;;5.23;;
6467;SDS011;3267;48.794;9.928;2022-12-07T16:53:38;9.17;;;5.73;;
6467;SDS011;3267;48.794;9.928;2022-12-07T16:56:09;5.57;;;5.07;;
6467;SDS011;3267;48.794;9.928;2022-12-07T16:58:37;5.47;;;4.87;;
6467;SDS011;3267;48.794;9.928;2022-12-07T17:01:14;8.47;;;6.67;;
6467;SDS011;3267;48.794;9.928;2022-12-07T17:03:41;9.97;;;7.83;;
6467;SDS011;3267;48.794;9.928;2022-12-07T17:06:12;16.70;;;10.17;;
6467;SDS011;3267;48.794;9.928;2022-12-07T17:08:42;8.37;;;5.20;;
6467;SDS011;3267;48.794;9.928;2022-12-07T17:11:10;4.83;;;4.30;;
6467;SDS011;3267;48.794;9.928;2022-12-07T17:19:50;9.30;;;5.43;;
6467;SDS011;3267;48.794;9.928;2022-12-07T17:22:17;6.10;;;5.37;;
6467;SDS011;3267;48.794;9.928;2022-12-07T17:24:43;10.93;;;7.00;;
6467;SDS011;3267;48.794;9.928;2022-12-07T17:27:09;7.90;;;5.90;;
6467;SDS011;3267;48.794;9.928;2022-12-07T17:29:36;6.17;;;5.30;;
6467;SDS011;3267;48.794;9.928;2022-12-07T17:32:05;11.37;;;8.63;;
6467;SDS011;3267;48.794;9.928;2022-12-07T17:34:31;9.20;;;7.13;;
6467;SDS011;3267;48.794;9.928;2022-12-07T17:36:58;11.00;;;8.47;;
6467;SDS011;3267;48.794;9.928;2022-12-07T17:39:24;10.47;;;6.50;;
6467;SDS011;3267;48.794;9.928;2022-12-07T17:41:50;10.27;;;7.63;;
6467;SDS011;3267;48.794;9.928;2022-12-07T17:44:37;9.73;;;7.27;;
6467;SDS011;3267;48.794;9.928;2022-12-07T17:47:03;9.93;;;6.63;;
6467;SDS011;3267;48.794;9.928;2022-12-07T17:49:30;8.40;;;5.93;;
6467;SDS011;3267;48.794;9.928;2022-12-07T17:51:56;10.20;;;7.67;;
6467;SDS011;3267;48.794;9.928;2022-12-07T17:54:42;6.30;;;5.63;;
6467;SDS011;3267;48.794;9.928;2022-12-07T17:57:08;7.53;;;5.83;;
6467;SDS011;3267;48.794;9.928;2022-12-07T17:59:34;8.73;;;6.13;;
6467;SDS011;3267;48.794;9.928;2022-12-07T18:02:03;5.50;;;4.97;;
6467;SDS011;3267;48.794;9.928;2022-12-07T18:04:30;5.77;;;3.77;;
6467;SDS011;3267;48.794;9.928;2022-12-07T18:06:56;8.77;;;5.40;;
6467;SDS011;3267;48.794;9.928;2022-12-07T18:09:22;4.90;;;4.03;;
6467;SDS011;3267;48.794;9.928;2022-12-07T18:11:49;5.67;;;4.57;;
6467;SDS011;3267;48.794;9.928;2022-12-07T18:14:15;6.53;;;4.33;;
6467;SDS011;3267;48.794;9.928;2022-12-07T18:16:41;5.60;;;4.57;;
6467;SDS011;3267;48.794;9.928;2022-12-07T18:19:08;6.97;;;4.80;;
6467;SDS011;3267;48.794;9.928;2022-12-07T18:21:37;5.53;;;4.60;;
6467;SDS011;3267;48.794;9.928;2022-12-07T18:24:04;11.00;;;8.10;;
6467;SDS011;3267;48.794;9.928;2022-12-07T18:26:31;4.73;;;3.97;;
6467;SDS011;3267;48.794;9.928;2022-12-07T18:29:00;7.07;;;4.87;;
6467;SDS011;3267;48.794;9.928;2022-12-07T18:31:27;7.27;;;4.93;;
6467;SDS011;3267;48.794;9.928;2022-12-07T18:33:53;16.43;;;9.63;;
6467;SDS011;3267;48.794;9.928;2022-12-07T18:36:22;30.20;;;13.60;;
6467;SDS011;3267;48.794;9.928;2022-12-07T18:38:49;10.83;;;6.33;;
6467;SDS011;3267;48.794;9.928;2022-12-07T18:41:15;7.00;;;5.07;;
6467;SDS011;3267;48.794;9.928;2022-12-07T18:43:41;7.23;;;5.30;;
6467;SDS011;3267;48.794;9.928;2022-12-07T18:46:18;10.00;;;6.20;;
6467;SDS011;3267;48.794;9.928;2022-12-07T18:48:45;6.20;;;5.30;;
6467;SDS011;3267;48.794;9.928;2022-12-07T18:51:12;11.13;;;6.97;;
6467;SDS011;3267;48.794;9.928;2022-12-07T18:53:38;9.10;;;6.53;;
6467;SDS011;3267;48.794;9.928;2022-12-07T18:56:05;14.17;;;10.73;;
6467;SDS011;3267;48.794;9.928;2022-12-07T18:58:34;10.33;;;7.90;;
6467;SDS011;3267;48.794;9.928;2022-12-07T19:01:00;11.13;;;7.17;;
6467;SDS011;3267;48.794;9.928;2022-12-07T19:03:27;12.60;;;6.73;;
6467;SDS011;3267;48.794;9.928;2022-12-07T19:05:55;9.37;;;7.37;;
6467;SDS011;3267;48.794;9.928;2022-12-07T19:08:23;9.50;;;6.90;;
6467;SDS011;3267;48.794;9.928;2022-12-07T19:10:49;10.33;;;7.60;;
6467;SDS011;3267;48.794;9.928;2022-12-07T19:13:16;11.60;;;7.30;;
6467;SDS011;3267;48.794;9.928;2022-12-07T19:15:42;8.73;;;7.07;;
6467;SDS011;3267;48.794;9.928;2022-12-07T19:18:08;8.83;;;6.30;;
6467;SDS011;3267;48.794;9.928;2022-12-07T19:20:34;7.77;;;6.27;;
6467;SDS011;3267;48.794;9.928;2022-12-07T19:23:01;10.43;;;6.57;;
6467;SDS011;3267;48.794;9.928;2022-12-07T19:25:27;9.43;;;6.73;;
6467;SDS011;3267;48.794;9.928;2022-12-07T19:27:53;10.53;;;7.67;;
6467;SDS011;3267;48.794;9.928;2022-12-07T19:30:20;14.03;;;9.70;;
6467;SDS011;3267;48.794;9.928;2022-12-07T19:32:46;7.83;;;6.67;;
6467;SDS011;3267;48.794;9.928;2022-12-07T19:35:12;8.53;;;6.67;;
6467;SDS011;3267;48.794;9.928;2022-12-07T19:37:38;8.50;;;5.90;;
6467;SDS011;3267;48.794;9.928;2022-12-07T19:40:04;6.07;;;5.47;;
6467;SDS011;3267;48.794;9.928;2022-12-07T19:42:31;11.17;;;6.20;;
6467;SDS011;3267;48.794;9.928;2022-12-07T19:45:00;7.20;;;5.43;;
6467;SDS011;3267;48.794;9.928;2022-12-07T19:47:26;21.40;;;12.07;;
6467;SDS011;3267;48.794;9.928;2022-12-07T19:49:53;16.73;;;9.93;;
6467;SDS011;3267;48.794;9.928;2022-12-07T19:52:19;9.90;;;6.47;;
6467;SDS011;3267;48.794;9.928;2022-12-07T19:54:45;13.47;;;9.23;;
6467;SDS011;3267;48.794;9.928;2022-12-07T19:57:11;10.40;;;7.33;;
6467;SDS011;3267;48.794;9.928;2022-12-07T19:59:40;6.77;;;5.77;;
6467;SDS011;3267;48.794;9.928;2022-12-07T20:02:10;7.03;;;5.50;;
6467;SDS011;3267;48.794;9.928;2022-12-07T20:04:37;7.33;;;6.00;;
6467;SDS011;3267;48.794;9.928;2022-12-07T20:07:03;7.87;;;5.20;;
6467;SDS011;3267;48.794;9.928;2022-12-07T20:09:29;5.87;;;5.00;;
6467;SDS011;3267;48.794;9.928;2022-12-07T20:11:56;4.63;;;3.97;;
6467;SDS011;3267;48.794;9.928;2022-12-07T20:14:41;5.63;;;4.70;;
6467;SDS011;3267;48.794;9.928;2022-12-07T20:17:07;7.07;;;4.67;;
6467;SDS011;3267;48.794;9.928;2022-12-07T20:19:37;6.57;;;4.83;;
6467;SDS011;3267;48.794;9.928;2022-12-07T20:22:03;6.93;;;4.67;;
6467;SDS011;3267;48.794;9.928;2022-12-07T20:24:30;5.77;;;4.47;;
6467;SDS011;3267;48.794;9.928;2022-12-07T20:26:57;5.47;;;4.43;;
6467;SDS011;3267;48.794;9.928;2022-12-07T20:29:23;6.00;;;4.30;;
6467;SDS011;3267;48.794;9.928;2022-12-07T20:31:50;5.80;;;4.80;;
6467;SDS011;3267;48.794;9.928;2022-12-07T20:34:17;9.53;;;4.87;;
6467;SDS011;3267;48.794;9.928;2022-12-07T20:36:43;8.03;;;4.93;;
6467;SDS011;3267;48.794;9.928;2022-12-07T20:39:09;5.73;;;5.13;;
6467;SDS011;3267;48.794;9.928;2022-12-07T20:41:37;8.53;;;5.07;;
6467;SDS011;3267;48.794;9.928;2022-12-07T20:44:22;8.23;;;5.40;;
6467;SDS011;3267;48.794;9.928;2022-12-07T20:46:48;4.67;;;3.90;;
6467;SDS011;3267;48.794;9.928;2022-12-07T20:49:14;5.87;;;4.90;;
6467;SDS011;3267;48.794;9.928;2022-12-07T20:51:42;7.00;;;4.90;;
6467;SDS011;3267;48.794;9.928;2022-12-07T20:54:09;5.97;;;4.80;;
6467;SDS011;3267;48.794;9.928;2022-12-07T20:56:35;5.50;;;4.03;;
6467;SDS011;3267;48.794;9.928;2022-12-07T20:59:02;5.50;;;4.37;;
6467;SDS011;3267;48.794;9.928;2022-12-07T21:01:29;5.20;;;4.23;;
6467;SDS011;3267;48.794;9.928;2022-12-07T21:03:56;5.40;;;4.50;;
6467;SDS011;3267;48.794;9.928;2022-12-07T21:06:23;5.13;;;4.47;;
6467;SDS011;3267;48.794;9.928;2022-12-07T21:08:50;7.40;;;5.43;;
6467;SDS011;3267;48.794;9.928;2022-12-07T21:11:18;8.93;;;6.00;;
6467;SDS011;3267;48.794;9.928;2022-12-07T21:13:44;7.03;;;5.10;;
6467;SDS011;3267;48.794;9.928;2022-12-07T21:16:12;5.37;;;4.40;;
6467;SDS011;3267;48.794;9.928;2022-12-07T21:18:38;7.53;;;5.03;;
6467;SDS011;3267;48.794;9.928;2022-12-07T21:21:05;7.43;;;4.63;;
6467;SDS011;3267;48.794;9.928;2022-12-07T21:23:32;5.60;;;4.53;;
6467;SDS011;3267;48.794;9.928;2022-12-07T21:25:58;6.67;;;4.90;;
6467;SDS011;3267;48.794;9.928;2022-12-07T21:28:24;9.13;;;5.97;;
6467;SDS011;3267;48.794;9.928;2022-12-07T21:31:09;6.93;;;5.20;;
6467;SDS011;3267;48.794;9.928;2022-12-07T21:33:54;9.17;;;6.00;;
6467;SDS011;3267;48.794;9.928;2022-12-07T21:36:22;7.17;;;6.13;;
6467;SDS011;3267;48.794;9.928;2022-12-07T21:38:49;8.30;;;6.00;;
6467;SDS011;3267;48.794;9.928;2022-12-07T21:41:23;7.00;;;5.80;;
6467;SDS011;3267;48.794;9.928;2022-12-07T21:43:50;6.00;;;5.20;;
6467;SDS011;3267;48.794;9.928;2022-12-07T21:46:16;9.27;;;6.50;;
6467;SDS011;3267;48.794;9.928;2022-12-07T21:48:48;10.00;;;5.80;;
6467;SDS011;3267;48.794;9.928;2022-12-07T21:51:14;7.80;;;5.93;;
6467;SDS011;3267;48.794;9.928;2022-12-07T21:53:41;7.40;;;5.40;;
6467;SDS011;3267;48.794;9.928;2022-12-07T21:56:18;7.37;;;5.83;;
6467;SDS011;3267;48.794;9.928;2022-12-07T21:58:45;8.97;;;6.10;;
6467;SDS011;3267;48.794;9.928;2022-12-07T22:01:16;7.60;;;5.90;;
6467;SDS011;3267;48.794;9.928;2022-12-07T22:03:43;10.37;;;8.10;;
6467;SDS011;3267;48.794;9.928;2022-12-07T22:06:43;5.87;;;5.27;;